Los Gatos, California
Current Conditions -  °F | °C
As of 10:53 AM on Thursday 27 Nov 2014 (Local Time) from KSJC Reporting Station
Broken Clouds Broken Clouds  
Wind Chill: 16°   Ceiling: 15000
Heat Index: 16°   Visibility: 7mi
Dew Point:   Wind: 0mph
Humidity: 58%   Direction: NA
Pressure: 30.17"   Gusts: NA
Location:  37.22°N, 121.97°W
Report Text: KSJC 271853Z 00000KT 7SM FEW100 BKN150 BKN250 16/08 A3017 RMK AO2 SLP215 T01610078
Loading
Personal Weather Stations






























Interactive Weather Map New forecast layout! Learn more

10-Day Weather Forecast

Advertisements
Track Severe Weather on mobile